sensor_id;sensor_type;location;lat;lon;timestamp;pressure;altitude;pressure_sealevel;temperature;humidity
38022;BME280;23832;43.216;27.946;2023-03-13T00:01:15;101220.03;;;10.27;54.07
38022;BME280;23832;43.216;27.946;2023-03-13T00:03:16;101228.03;;;10.17;54.11
38022;BME280;23832;43.216;27.946;2023-03-13T00:05:18;101231.66;;;10.16;54.35
38022;BME280;23832;43.216;27.946;2023-03-13T00:07:20;101237.66;;;10.26;54.13
38022;BME280;23832;43.216;27.946;2023-03-13T00:09:22;101233.41;;;10.33;53.68
38022;BME280;23832;43.216;27.946;2023-03-13T00:11:24;101234.09;;;10.35;53.87
38022;BME280;23832;43.216;27.946;2023-03-13T00:13:25;101238.84;;;10.32;53.45
38022;BME280;23832;43.216;27.946;2023-03-13T00:15:27;101236.03;;;10.33;53.18
38022;BME280;23832;43.216;27.946;2023-03-13T00:17:30;101228.63;;;10.29;53.47
38022;BME280;23832;43.216;27.946;2023-03-13T00:19:32;101236.16;;;10.23;53.66
38022;BME280;23832;43.216;27.946;2023-03-13T00:21:34;101232.00;;;10.21;53.29
38022;BME280;23832;43.216;27.946;2023-03-13T00:23:37;101234.13;;;10.17;53.26
38022;BME280;23832;43.216;27.946;2023-03-13T00:25:39;101233.59;;;10.14;53.79
38022;BME280;23832;43.216;27.946;2023-03-13T00:27:40;101237.59;;;10.18;53.32
38022;BME280;23832;43.216;27.946;2023-03-13T00:29:42;101235.19;;;10.25;53.21
38022;BME280;23832;43.216;27.946;2023-03-13T00:31:44;101238.78;;;10.23;53.17
38022;BME280;23832;43.216;27.946;2023-03-13T00:33:47;101230.59;;;10.27;53.09
38022;BME280;23832;43.216;27.946;2023-03-13T00:35:50;101233.69;;;10.22;53.43
38022;BME280;23832;43.216;27.946;2023-03-13T00:37:52;101231.56;;;10.26;53.44
38022;BME280;23832;43.216;27.946;2023-03-13T00:39:54;101228.94;;;10.26;53.42
38022;BME280;23832;43.216;27.946;2023-03-13T00:41:56;101230.25;;;10.30;52.84
38022;BME280;23832;43.216;27.946;2023-03-13T00:43:58;101238.78;;;10.23;53.39
38022;BME280;23832;43.216;27.946;2023-03-13T00:46:00;101232.75;;;10.31;52.96
38022;BME280;23832;43.216;27.946;2023-03-13T00:48:01;101243.25;;;10.05;53.29
38022;BME280;23832;43.216;27.946;2023-03-13T00:50:05;101240.09;;;9.58;54.51
38022;BME280;23832;43.216;27.946;2023-03-13T00:52:07;101238.59;;;9.37;55.42
38022;BME280;23832;43.216;27.946;2023-03-13T00:54:09;101239.44;;;9.38;55.74
38022;BME280;23832;43.216;27.946;2023-03-13T00:56:11;101237.94;;;9.35;55.91
38022;BME280;23832;43.216;27.946;2023-03-13T00:58:13;101238.03;;;9.70;54.75
38022;BME280;23832;43.216;27.946;2023-03-13T01:00:15;101245.06;;;9.43;55.51
38022;BME280;23832;43.216;27.946;2023-03-13T01:02:16;101243.56;;;9.41;56.08
38022;BME280;23832;43.216;27.946;2023-03-13T01:04:18;101239.25;;;9.75;54.59
38022;BME280;23832;43.216;27.946;2023-03-13T01:06:23;101247.31;;;9.56;54.86
38022;BME280;23832;43.216;27.946;2023-03-13T01:08:25;101252.34;;;9.85;54.37
38022;BME280;23832;43.216;27.946;2023-03-13T01:10:27;101246.69;;;9.98;53.87
38022;BME280;23832;43.216;27.946;2023-03-13T01:12:28;101251.47;;;10.02;53.49
38022;BME280;23832;43.216;27.946;2023-03-13T01:14:30;101245.22;;;10.03;53.57
38022;BME280;23832;43.216;27.946;2023-03-13T01:16:33;101246.88;;;10.04;52.96
38022;BME280;23832;43.216;27.946;2023-03-13T01:18:36;101247.50;;;9.98;53.48
38022;BME280;23832;43.216;27.946;2023-03-13T01:20:38;101251.25;;;9.95;53.48
38022;BME280;23832;43.216;27.946;2023-03-13T01:22:41;101249.81;;;10.01;53.72
38022;BME280;23832;43.216;27.946;2023-03-13T01:24:43;101252.13;;;10.04;53.58
38022;BME280;23832;43.216;27.946;2023-03-13T01:26:45;101256.91;;;10.01;53.50
38022;BME280;23832;43.216;27.946;2023-03-13T01:28:47;101260.69;;;10.06;53.35
38022;BME280;23832;43.216;27.946;2023-03-13T01:30:49;101271.41;;;10.05;53.29
38022;BME280;23832;43.216;27.946;2023-03-13T01:32:51;101262.94;;;9.93;53.61
38022;BME280;23832;43.216;27.946;2023-03-13T01:34:52;101259.38;;;10.02;53.05
38022;BME280;23832;43.216;27.946;2023-03-13T01:36:54;101271.97;;;9.90;53.18
38022;BME280;23832;43.216;27.946;2023-03-13T01:38:58;101267.38;;;9.75;53.24
38022;BME280;23832;43.216;27.946;2023-03-13T01:41:00;101268.63;;;9.62;53.58
38022;BME280;23832;43.216;27.946;2023-03-13T01:43:11;101268.53;;;9.54;54.15
38022;BME280;23832;43.216;27.946;2023-03-13T01:47:29;101276.59;;;9.53;54.29
38022;BME280;23832;43.216;27.946;2023-03-13T01:49:31;101273.97;;;9.53;54.34
38022;BME280;23832;43.216;27.946;2023-03-13T01:51:35;101280.88;;;9.54;54.33
38022;BME280;23832;43.216;27.946;2023-03-13T01:53:40;101284.78;;;9.50;54.45
38022;BME280;23832;43.216;27.946;2023-03-13T01:55:45;101290.84;;;9.50;54.83
38022;BME280;23832;43.216;27.946;2023-03-13T01:57:48;101292.22;;;9.54;54.68
38022;BME280;23832;43.216;27.946;2023-03-13T01:59:51;101294.56;;;9.57;54.59
38022;BME280;23832;43.216;27.946;2023-03-13T02:01:54;101296.41;;;9.29;55.16
38022;BME280;23832;43.216;27.946;2023-03-13T02:03:57;101305.03;;;9.22;55.10
38022;BME280;23832;43.216;27.946;2023-03-13T02:05:59;101299.28;;;9.36;54.95
38022;BME280;23832;43.216;27.946;2023-03-13T02:08:05;101303.09;;;9.24;55.14
38022;BME280;23832;43.216;27.946;2023-03-13T02:10:08;101313.44;;;9.25;55.18
38022;BME280;23832;43.216;27.946;2023-03-13T02:12:15;101311.53;;;9.27;55.32
38022;BME280;23832;43.216;27.946;2023-03-13T02:14:19;101307.31;;;9.34;55.24
38022;BME280;23832;43.216;27.946;2023-03-13T02:16:22;101315.91;;;9.36;54.96
38022;BME280;23832;43.216;27.946;2023-03-13T02:18:24;101314.22;;;9.18;55.22
38022;BME280;23832;43.216;27.946;2023-03-13T02:20:26;101318.34;;;9.20;55.45
38022;BME280;23832;43.216;27.946;2023-03-13T02:22:28;101317.63;;;9.28;55.19
38022;BME280;23832;43.216;27.946;2023-03-13T02:24:33;101330.63;;;9.29;54.65
38022;BME280;23832;43.216;27.946;2023-03-13T02:26:39;101338.00;;;9.26;54.49
38022;BME280;23832;43.216;27.946;2023-03-13T02:28:41;101337.69;;;9.29;54.37
38022;BME280;23832;43.216;27.946;2023-03-13T02:30:43;101344.84;;;9.36;53.81
38022;BME280;23832;43.216;27.946;2023-03-13T02:32:45;101347.22;;;9.30;53.63
38022;BME280;23832;43.216;27.946;2023-03-13T02:34:47;101345.28;;;9.32;53.58
38022;BME280;23832;43.216;27.946;2023-03-13T02:36:50;101349.13;;;9.37;53.56
38022;BME280;23832;43.216;27.946;2023-03-13T02:38:54;101349.28;;;9.36;53.30
38022;BME280;23832;43.216;27.946;2023-03-13T02:40:58;101348.88;;;9.31;53.58
38022;BME280;23832;43.216;27.946;2023-03-13T02:43:02;101354.91;;;9.41;53.48
38022;BME280;23832;43.216;27.946;2023-03-13T02:45:05;101353.94;;;9.42;53.12
38022;BME280;23832;43.216;27.946;2023-03-13T02:47:07;101362.28;;;9.37;53.26
38022;BME280;23832;43.216;27.946;2023-03-13T02:49:16;101367.09;;;9.42;53.44
38022;BME280;23832;43.216;27.946;2023-03-13T02:51:21;101369.63;;;9.34;53.12
38022;BME280;23832;43.216;27.946;2023-03-13T02:53:24;101365.50;;;9.31;53.29
38022;BME280;23832;43.216;27.946;2023-03-13T02:55:27;101370.47;;;9.34;53.32
38022;BME280;23832;43.216;27.946;2023-03-13T02:57:30;101377.69;;;9.32;53.13
38022;BME280;23832;43.216;27.946;2023-03-13T02:59:34;101379.59;;;9.40;53.08
38022;BME280;23832;43.216;27.946;2023-03-13T03:01:36;101379.28;;;9.43;52.73
38022;BME280;23832;43.216;27.946;2023-03-13T03:03:37;101372.97;;;9.36;52.54
38022;BME280;23832;43.216;27.946;2023-03-13T03:05:39;101370.44;;;9.44;52.33
38022;BME280;23832;43.216;27.946;2023-03-13T03:07:41;101379.88;;;9.37;52.60
38022;BME280;23832;43.216;27.946;2023-03-13T03:09:43;101372.88;;;9.28;52.98
38022;BME280;23832;43.216;27.946;2023-03-13T03:11:45;101379.09;;;9.27;53.00
38022;BME280;23832;43.216;27.946;2023-03-13T03:13:46;101392.06;;;9.38;52.82
38022;BME280;23832;43.216;27.946;2023-03-13T03:15:49;101390.00;;;9.32;53.12
38022;BME280;23832;43.216;27.946;2023-03-13T03:17:51;101390.69;;;9.34;53.31
38022;BME280;23832;43.216;27.946;2023-03-13T03:19:52;101392.59;;;9.42;53.19
38022;BME280;23832;43.216;27.946;2023-03-13T03:21:54;101391.00;;;9.31;53.26
38022;BME280;23832;43.216;27.946;2023-03-13T03:23:56;101391.50;;;9.17;53.40
38022;BME280;23832;43.216;27.946;2023-03-13T03:25:57;101396.03;;;9.15;53.50
38022;BME280;23832;43.216;27.946;2023-03-13T03:27:59;101399.66;;;9.14;53.57
38022;BME280;23832;43.216;27.946;2023-03-13T03:30:01;101397.91;;;9.32;53.21
38022;BME280;23832;43.216;27.946;2023-03-13T03:32:04;101404.19;;;9.21;53.51
38022;BME280;23832;43.216;27.946;2023-03-13T03:34:06;101398.78;;;9.23;53.36
38022;BME280;23832;43.216;27.946;2023-03-13T03:36:08;101402.84;;;9.07;53.95
38022;BME280;23832;43.216;27.946;2023-03-13T03:38:10;101407.44;;;9.05;53.97
38022;BME280;23832;43.216;27.946;2023-03-13T03:40:12;101400.78;;;9.11;53.61
38022;BME280;23832;43.216;27.946;2023-03-13T03:42:14;101408.38;;;9.14;53.79
38022;BME280;23832;43.216;27.946;2023-03-13T03:44:16;101416.53;;;9.21;53.42
38022;BME280;23832;43.216;27.946;2023-03-13T03:46:17;101413.63;;;9.14;53.48
38022;BME280;23832;43.216;27.946;2023-03-13T03:48:21;101405.59;;;9.16;53.76
38022;BME280;23832;43.216;27.946;2023-03-13T03:50:22;101408.00;;;9.09;53.94
38022;BME280;23832;43.216;27.946;2023-03-13T03:52:24;101411.03;;;9.04;54.03
38022;BME280;23832;43.216;27.946;2023-03-13T03:54:26;101403.75;;;8.89;54.68
38022;BME280;23832;43.216;27.946;2023-03-13T03:56:28;101409.75;;;8.81;54.92
38022;BME280;23832;43.216;27.946;2023-03-13T03:58:30;101412.19;;;8.92;54.94
38022;BME280;23832;43.216;27.946;2023-03-13T04:00:31;101407.19;;;8.89;55.03
38022;BME280;23832;43.216;27.946;2023-03-13T04:02:33;101415.09;;;8.89;55.36
38022;BME280;23832;43.216;27.946;2023-03-13T04:04:36;101419.53;;;8.79;56.32
38022;BME280;23832;43.216;27.946;2023-03-13T04:06:38;101419.41;;;8.90;55.87
38022;BME280;23832;43.216;27.946;2023-03-13T04:08:39;101428.53;;;8.86;56.17
38022;BME280;23832;43.216;27.946;2023-03-13T04:10:41;101426.31;;;8.91;56.09
38022;BME280;23832;43.216;27.946;2023-03-13T04:12:43;101429.50;;;8.85;56.87
38022;BME280;23832;43.216;27.946;2023-03-13T04:14:44;101431.81;;;8.98;56.27
38022;BME280;23832;43.216;27.946;2023-03-13T04:16:46;101427.69;;;8.95;56.73
38022;BME280;23832;43.216;27.946;2023-03-13T04:18:48;101433.06;;;9.03;55.98
38022;BME280;23832;43.216;27.946;2023-03-13T04:20:58;101434.44;;;8.98;56.66
38022;BME280;23832;43.216;27.946;2023-03-13T04:22:59;101440.00;;;8.95;56.59
38022;BME280;23832;43.216;27.946;2023-03-13T04:25:01;101448.03;;;8.93;58.18
38022;BME280;23832;43.216;27.946;2023-03-13T04:27:03;101452.75;;;8.99;58.27
38022;BME280;23832;43.216;27.946;2023-03-13T04:29:05;101457.28;;;8.97;60.77
38022;BME280;23832;43.216;27.946;2023-03-13T04:31:07;101452.81;;;9.07;61.21
38022;BME280;23832;43.216;27.946;2023-03-13T04:33:09;101461.81;;;9.15;60.16
38022;BME280;23832;43.216;27.946;2023-03-13T04:35:10;101459.19;;;9.15;58.98
38022;BME280;23832;43.216;27.946;2023-03-13T04:37:13;101458.09;;;9.07;58.98
38022;BME280;23832;43.216;27.946;2023-03-13T04:39:15;101464.72;;;9.12;58.62
38022;BME280;23832;43.216;27.946;2023-03-13T04:41:16;101467.50;;;9.10;58.79
38022;BME280;23832;43.216;27.946;2023-03-13T04:43:18;101462.97;;;9.02;58.64
38022;BME280;23832;43.216;27.946;2023-03-13T04:45:20;101473.91;;;8.98;58.97
38022;BME280;23832;43.216;27.946;2023-03-13T04:47:21;101465.28;;;9.05;58.68
38022;BME280;23832;43.216;27.946;2023-03-13T04:49:23;101466.91;;;9.16;58.07
38022;BME280;23832;43.216;27.946;2023-03-13T04:51:25;101476.34;;;9.19;58.20
38022;BME280;23832;43.216;27.946;2023-03-13T04:53:28;101480.97;;;9.34;57.17
38022;BME280;23832;43.216;27.946;2023-03-13T04:55:30;101481.59;;;9.28;57.51
38022;BME280;23832;43.216;27.946;2023-03-13T04:57:32;101480.97;;;9.34;57.26
38022;BME280;23832;43.216;27.946;2023-03-13T04:59:33;101483.75;;;9.33;57.40
38022;BME280;23832;43.216;27.946;2023-03-13T05:01:35;101486.13;;;9.36;57.29
38022;BME280;23832;43.216;27.946;2023-03-13T05:03:36;101498.50;;;9.26;59.42
38022;BME280;23832;43.216;27.946;2023-03-13T05:05:38;101501.78;;;9.37;60.48
38022;BME280;23832;43.216;27.946;2023-03-13T05:07:40;101504.97;;;9.68;59.14
38022;BME280;23832;43.216;27.946;2023-03-13T05:09:43;101504.94;;;9.96;58.91
38022;BME280;23832;43.216;27.946;2023-03-13T05:11:44;101507.31;;;10.27;58.14
38022;BME280;23832;43.216;27.946;2023-03-13T05:13:46;101504.94;;;10.59;57.18
38022;BME280;23832;43.216;27.946;2023-03-13T05:15:50;101505.09;;;10.75;56.04
38022;BME280;23832;43.216;27.946;2023-03-13T05:17:52;101511.72;;;10.97;55.64
38022;BME280;23832;43.216;27.946;2023-03-13T05:19:54;101519.38;;;11.08;55.08
38022;BME280;23832;43.216;27.946;2023-03-13T05:21:56;101522.31;;;11.31;54.36
38022;BME280;23832;43.216;27.946;2023-03-13T05:23:57;101514.19;;;11.59;52.94
38022;BME280;23832;43.216;27.946;2023-03-13T05:26:00;101517.66;;;11.93;52.68
38022;BME280;23832;43.216;27.946;2023-03-13T05:28:02;101517.25;;;12.06;52.09
38022;BME280;23832;43.216;27.946;2023-03-13T05:30:04;101523.41;;;12.31;51.74
38022;BME280;23832;43.216;27.946;2023-03-13T05:32:06;101524.44;;;12.71;50.71
38022;BME280;23832;43.216;27.946;2023-03-13T05:34:08;101521.44;;;13.15;49.86
38022;BME280;23832;43.216;27.946;2023-03-13T05:36:10;101527.66;;;13.46;49.33
38022;BME280;23832;43.216;27.946;2023-03-13T05:38:12;101528.03;;;13.82;48.21
38022;BME280;23832;43.216;27.946;2023-03-13T05:40:14;101536.22;;;14.35;47.19
38022;BME280;23832;43.216;27.946;2023-03-13T05:42:17;101530.19;;;14.49;46.81
38022;BME280;23832;43.216;27.946;2023-03-13T05:44:19;101536.97;;;15.12;45.79
38022;BME280;23832;43.216;27.946;2023-03-13T05:46:20;101536.81;;;15.43;44.92
38022;BME280;23832;43.216;27.946;2023-03-13T05:48:22;101536.47;;;15.91;44.38
38022;BME280;23832;43.216;27.946;2023-03-13T05:50:24;101541.69;;;16.56;43.16
38022;BME280;23832;43.216;27.946;2023-03-13T05:52:25;101537.28;;;17.13;41.84
38022;BME280;23832;43.216;27.946;2023-03-13T05:54:27;101544.47;;;17.47;41.56
38022;BME280;23832;43.216;27.946;2023-03-13T05:56:29;101550.72;;;18.02;40.29
38022;BME280;23832;43.216;27.946;2023-03-13T05:58:32;101546.34;;;18.55;39.14
38022;BME280;23832;43.216;27.946;2023-03-13T06:00:34;101546.16;;;18.63;38.81
38022;BME280;23832;43.216;27.946;2023-03-13T06:02:35;101550.91;;;18.68;38.72
38022;BME280;23832;43.216;27.946;2023-03-13T06:04:37;101552.56;;;19.22;38.10
38022;BME280;23832;43.216;27.946;2023-03-13T06:06:39;101557.66;;;19.56;37.53
38022;BME280;23832;43.216;27.946;2023-03-13T06:08:41;101556.00;;;19.62;37.27
38022;BME280;23832;43.216;27.946;2023-03-13T06:10:43;101562.09;;;19.96;35.80
38022;BME280;23832;43.216;27.946;2023-03-13T06:12:50;101562.19;;;19.69;35.96
38022;BME280;23832;43.216;27.946;2023-03-13T06:14:53;101556.31;;;19.92;35.23
38022;BME280;23832;43.216;27.946;2023-03-13T06:16:55;101557.00;;;20.19;34.07
38022;BME280;23832;43.216;27.946;2023-03-13T06:18:56;101561.75;;;20.24;34.57
38022;BME280;23832;43.216;27.946;2023-03-13T06:20:59;101570.28;;;20.77;34.38
38022;BME280;23832;43.216;27.946;2023-03-13T06:23:00;101569.72;;;20.93;34.13
38022;BME280;23832;43.216;27.946;2023-03-13T06:25:02;101562.56;;;21.56;33.38
38022;BME280;23832;43.216;27.946;2023-03-13T06:27:04;101564.66;;;22.08;32.79
38022;BME280;23832;43.216;27.946;2023-03-13T06:29:05;101565.25;;;21.74;33.10
38022;BME280;23832;43.216;27.946;2023-03-13T06:31:09;101566.75;;;21.88;32.11
38022;BME280;23832;43.216;27.946;2023-03-13T06:33:10;101563.94;;;21.21;32.49
38022;BME280;23832;43.216;27.946;2023-03-13T06:35:12;101565.47;;;21.11;33.01
38022;BME280;23832;43.216;27.946;2023-03-13T06:37:14;101568.91;;;21.98;32.30
38022;BME280;23832;43.216;27.946;2023-03-13T06:39:15;101564.25;;;22.12;32.14
38022;BME280;23832;43.216;27.946;2023-03-13T06:41:17;101560.00;;;22.34;31.47
38022;BME280;23832;43.216;27.946;2023-03-13T06:43:19;101569.69;;;22.77;31.63
38022;BME280;23832;43.216;27.946;2023-03-13T06:45:20;101568.69;;;22.89;31.30
38022;BME280;23832;43.216;27.946;2023-03-13T06:47:24;101569.75;;;23.00;31.25
38022;BME280;23832;43.216;27.946;2023-03-13T06:49:25;101570.22;;;23.32;30.65
38022;BME280;23832;43.216;27.946;2023-03-13T06:51:27;101558.88;;;23.07;30.90
38022;BME280;23832;43.216;27.946;2023-03-13T06:53:29;101564.94;;;23.61;30.45
38022;BME280;23832;43.216;27.946;2023-03-13T06:55:30;101564.78;;;23.91;29.93
38022;BME280;23832;43.216;27.946;2023-03-13T06:57:32;101565.31;;;23.17;30.26
38022;BME280;23832;43.216;27.946;2023-03-13T06:59:34;101564.03;;;23.20;29.86
38022;BME280;23832;43.216;27.946;2023-03-13T07:01:37;101561.66;;;23.70;29.23
38022;BME280;23832;43.216;27.946;2023-03-13T07:03:40;101572.19;;;24.12;28.24
38022;BME280;23832;43.216;27.946;2023-03-13T07:05:43;101568.06;;;24.50;27.78
38022;BME280;23832;43.216;27.946;2023-03-13T07:07:46;101568.25;;;24.03;27.29
38022;BME280;23832;43.216;27.946;2023-03-13T07:09:48;101569.97;;;25.00;26.89
38022;BME280;23832;43.216;27.946;2023-03-13T07:11:50;101562.28;;;24.29;27.21
38022;BME280;23832;43.216;27.946;2023-03-13T07:13:53;101572.28;;;24.17;27.46
38022;BME280;23832;43.216;27.946;2023-03-13T07:15:59;101567.34;;;24.54;27.40
38022;BME280;23832;43.216;27.946;2023-03-13T07:18:00;101560.63;;;25.80;25.41
38022;BME280;23832;43.216;27.946;2023-03-13T07:20:05;101563.19;;;24.63;26.59
38022;BME280;23832;43.216;27.946;2023-03-13T07:22:10;101566.94;;;24.79;26.88
38022;BME280;23832;43.216;27.946;2023-03-13T07:24:11;101572.03;;;25.26;26.83
38022;BME280;23832;43.216;27.946;2023-03-13T07:26:15;101581.13;;;25.20;26.29
38022;BME280;23832;43.216;27.946;2023-03-13T07:28:17;101580.19;;;26.14;26.05
38022;BME280;23832;43.216;27.946;2023-03-13T07:30:19;101581.91;;;25.76;26.34
38022;BME280;23832;43.216;27.946;2023-03-13T07:32:21;101585.66;;;25.75;26.27
38022;BME280;23832;43.216;27.946;2023-03-13T07:34:23;101576.56;;;26.30;25.80
38022;BME280;23832;43.216;27.946;2023-03-13T07:36:27;101575.56;;;26.36;25.26
38022;BME280;23832;43.216;27.946;2023-03-13T07:38:30;101575.22;;;26.54;25.32
38022;BME280;23832;43.216;27.946;2023-03-13T07:40:32;101583.81;;;27.58;24.41
38022;BME280;23832;43.216;27.946;2023-03-13T07:42:34;101572.59;;;26.97;24.42
38022;BME280;23832;43.216;27.946;2023-03-13T07:44:36;101573.84;;;27.16;24.83
38022;BME280;23832;43.216;27.946;2023-03-13T07:46:38;101574.94;;;27.67;24.16
38022;BME280;23832;43.216;27.946;2023-03-13T07:48:41;101568.50;;;27.79;23.58
38022;BME280;23832;43.216;27.946;2023-03-13T07:50:45;101592.00;;;26.08;24.75
38022;BME280;23832;43.216;27.946;2023-03-13T07:52:48;101560.38;;;26.89;24.30
38022;BME280;23832;43.216;27.946;2023-03-13T07:54:50;101570.34;;;27.21;25.00
38022;BME280;23832;43.216;27.946;2023-03-13T07:56:53;101539.22;;;27.76;23.68
38022;BME280;23832;43.216;27.946;2023-03-13T07:58:55;101566.19;;;27.50;22.03
38022;BME280;23832;43.216;27.946;2023-03-13T08:00:57;101571.63;;;27.55;21.28
38022;BME280;23832;43.216;27.946;2023-03-13T08:02:59;101572.63;;;28.02;18.96
38022;BME280;23832;43.216;27.946;2023-03-13T08:05:01;101565.91;;;28.19;19.03
38022;BME280;23832;43.216;27.946;2023-03-13T08:07:07;101567.84;;;28.39;18.92
38022;BME280;23832;43.216;27.946;2023-03-13T08:09:10;101578.41;;;28.25;19.60
38022;BME280;23832;43.216;27.946;2023-03-13T08:11:14;101580.38;;;28.76;20.18
38022;BME280;23832;43.216;27.946;2023-03-13T08:13:16;101573.53;;;29.29;19.11
38022;BME280;23832;43.216;27.946;2023-03-13T08:15:18;101567.28;;;29.39;18.54
38022;BME280;23832;43.216;27.946;2023-03-13T08:17:28;101573.25;;;29.51;18.96
38022;BME280;23832;43.216;27.946;2023-03-13T08:19:32;101578.78;;;29.90;18.04
38022;BME280;23832;43.216;27.946;2023-03-13T08:21:35;101574.91;;;30.12;17.90
38022;BME280;23832;43.216;27.946;2023-03-13T08:23:38;101565.94;;;30.11;17.98
38022;BME280;23832;43.216;27.946;2023-03-13T08:25:43;101572.97;;;29.53;17.65
38022;BME280;23832;43.216;27.946;2023-03-13T08:27:45;101566.31;;;29.84;18.71
38022;BME280;23832;43.216;27.946;2023-03-13T08:29:47;101569.88;;;30.63;18.16
38022;BME280;23832;43.216;27.946;2023-03-13T08:31:49;101566.44;;;31.16;16.59
38022;BME280;23832;43.216;27.946;2023-03-13T08:33:52;101561.84;;;31.40;17.71
38022;BME280;23832;43.216;27.946;2023-03-13T08:35:54;101554.97;;;31.19;18.05
38022;BME280;23832;43.216;27.946;2023-03-13T08:37:56;101553.84;;;32.48;16.38
38022;BME280;23832;43.216;27.946;2023-03-13T08:39:58;101560.69;;;32.08;16.90
38022;BME280;23832;43.216;27.946;2023-03-13T08:42:02;101565.19;;;32.55;17.04
38022;BME280;23832;43.216;27.946;2023-03-13T08:44:04;101554.06;;;31.76;17.47
38022;BME280;23832;43.216;27.946;2023-03-13T08:46:06;101565.34;;;32.07;17.13
38022;BME280;23832;43.216;27.946;2023-03-13T08:48:08;101560.63;;;30.64;18.29
38022;BME280;23832;43.216;27.946;2023-03-13T08:50:10;101563.38;;;31.27;18.09
38022;BME280;23832;43.216;27.946;2023-03-13T08:52:12;101556.72;;;31.81;17.62
38022;BME280;23832;43.216;27.946;2023-03-13T08:54:14;101569.72;;;32.46;17.36
38022;BME280;23832;43.216;27.946;2023-03-13T08:56:17;101565.19;;;31.80;17.04
38022;BME280;23832;43.216;27.946;2023-03-13T08:58:21;101561.53;;;32.46;17.18
38022;BME280;23832;43.216;27.946;2023-03-13T09:00:28;101573.16;;;32.14;16.88
38022;BME280;23832;43.216;27.946;2023-03-13T09:02:30;101571.44;;;33.62;16.25
38022;BME280;23832;43.216;27.946;2023-03-13T09:04:32;101562.78;;;32.67;16.41
38022;BME280;23832;43.216;27.946;2023-03-13T09:06:34;101572.81;;;32.39;16.59
38022;BME280;23832;43.216;27.946;2023-03-13T09:08:38;101573.97;;;31.72;17.12
38022;BME280;23832;43.216;27.946;2023-03-13T09:10:41;101565.22;;;30.74;16.83
38022;BME280;23832;43.216;27.946;2023-03-13T09:12:43;101561.09;;;32.39;16.83
38022;BME280;23832;43.216;27.946;2023-03-13T09:14:48;101561.91;;;32.02;16.59
38022;BME280;23832;43.216;27.946;2023-03-13T09:16:50;101556.81;;;32.33;16.96
38022;BME280;23832;43.216;27.946;2023-03-13T09:18:53;101561.19;;;30.95;18.06
38022;BME280;23832;43.216;27.946;2023-03-13T09:20:55;101563.19;;;31.14;17.56
38022;BME280;23832;43.216;27.946;2023-03-13T09:22:57;101556.66;;;30.51;17.82
38022;BME280;23832;43.216;27.946;2023-03-13T09:24:59;101563.50;;;30.49;18.34
38022;BME280;23832;43.216;27.946;2023-03-13T09:27:01;101558.00;;;30.15;19.10
38022;BME280;23832;43.216;27.946;2023-03-13T09:29:03;101546.69;;;30.76;18.52
38022;BME280;23832;43.216;27.946;2023-03-13T09:31:08;101551.28;;;31.33;18.24
38022;BME280;23832;43.216;27.946;2023-03-13T09:33:10;101559.31;;;32.29;18.20
38022;BME280;23832;43.216;27.946;2023-03-13T09:35:12;101567.56;;;33.08;17.79
38022;BME280;23832;43.216;27.946;2023-03-13T09:37:14;101558.41;;;32.85;17.87
38022;BME280;23832;43.216;27.946;2023-03-13T09:39:16;101566.41;;;32.11;18.35
38022;BME280;23832;43.216;27.946;2023-03-13T09:41:23;101563.50;;;31.60;18.74
38022;BME280;23832;43.216;27.946;2023-03-13T09:43:35;101562.84;;;30.91;18.94
38022;BME280;23832;43.216;27.946;2023-03-13T09:45:42;101571.47;;;31.99;18.76
38022;BME280;23832;43.216;27.946;2023-03-13T09:47:49;101552.31;;;32.42;18.78
38022;BME280;23832;43.216;27.946;2023-03-13T09:49:56;101581.00;;;33.04;18.42
38022;BME280;23832;43.216;27.946;2023-03-13T09:52:12;101588.31;;;31.58;18.50
38022;BME280;23832;43.216;27.946;2023-03-13T09:54:27;101586.28;;;31.93;18.51
38022;BME280;23832;43.216;27.946;2023-03-13T09:56:34;101584.19;;;32.60;18.64
38022;BME280;23832;43.216;27.946;2023-03-13T09:58:41;101580.50;;;32.37;18.62
38022;BME280;23832;43.216;27.946;2023-03-13T10:00:47;101576.69;;;31.77;19.07
38022;BME280;23832;43.216;27.946;2023-03-13T10:02:57;101576.91;;;31.56;18.87
38022;BME280;23832;43.216;27.946;2023-03-13T10:05:11;101566.75;;;32.24;18.03
38022;BME280;23832;43.216;27.946;2023-03-13T10:07:14;101573.41;;;31.75;18.85
38022;BME280;23832;43.216;27.946;2023-03-13T10:09:18;101566.53;;;32.39;18.44
38022;BME280;23832;43.216;27.946;2023-03-13T10:11:25;101574.47;;;31.79;18.16
38022;BME280;23832;43.216;27.946;2023-03-13T10:13:33;101584.22;;;32.23;17.97
38022;BME280;23832;43.216;27.946;2023-03-13T10:15:42;101567.56;;;32.43;18.27
38022;BME280;23832;43.216;27.946;2023-03-13T10:17:48;101576.00;;;30.45;19.17
38022;BME280;23832;43.216;27.946;2023-03-13T10:19:55;101584.13;;;31.90;18.56
38022;BME280;23832;43.216;27.946;2023-03-13T10:22:02;101570.78;;;31.17;18.71
38022;BME280;23832;43.216;27.946;2023-03-13T10:24:13;101573.56;;;31.12;19.13
38022;BME280;23832;43.216;27.946;2023-03-13T10:26:23;101555.13;;;31.32;18.83
38022;BME280;23832;43.216;27.946;2023-03-13T10:28:28;101559.06;;;30.58;19.07
38022;BME280;23832;43.216;27.946;2023-03-13T10:30:33;101563.59;;;31.31;18.94
38022;BME280;23832;43.216;27.946;2023-03-13T10:32:35;101563.16;;;30.56;19.58
38022;BME280;23832;43.216;27.946;2023-03-13T10:34:49;101564.34;;;31.07;18.64
38022;BME280;23832;43.216;27.946;2023-03-13T10:37:00;101549.78;;;31.46;18.45
38022;BME280;23832;43.216;27.946;2023-03-13T10:39:07;101557.84;;;31.03;18.90